Decoded Metar for SEGU (GUAYAQUIL in ECUADOR) (IATA:GYE) | Meteo·Mobile Aviation Weather
aviador You're here:

SEGU Decoded Metar

GUAYAQUIL in ECUADOR
Report Time2018-12-11 09:00:00
UTC Time2018-12-11 09:34:50
Flight Rules vfr VFR
Wind220° at 09 kt
W.Decomp.*RWY 21: 8.8 kt HW 1.7 kt RCW
W.Rank220° ranks 1
Current wind is above 220° avg. (8.1)
Visibility9999 m
Phenomena:N/A
Clouds:Scattered 040 Hf
Broken 100 Hf
Expected CloudBase > 1,600 ft AGL from Temp-Dew spread
Ceiling10,000 ft
Temp24°C (ISA +9)
Dew Point20°C (78% RH)
QNH1011 hPa
Density Alt1,457 ft
Elevation30 ft
Report Wrong Elevation
Raw Report
SEGU 110900Z 22009KT 9999 SCT040 BKN100 24/20 Q1011 NOSIG RMK
A2985=

Extra information for SEGU:More info

Metar Taf Metar & Taf Last 4 Metars F.Rules Stats Wind Profile Meteogram Temp Stats Airport Information Weather charts Add Link Nearby VenuesMetar ALERT Operation Metar Decoded Social comments